Time;durP1;ratioP1;P1;durP2;ratioP2;P2;SDS_P1;SDS_P2;PMS_P1;PMS_P2;Temp;Humidity;BMP_temperature;BMP_pressure;BME280_temperature;BME280_humidity;BME280_pressure;Samples;Min_cycle;Max_cycle;Signal;HPM_P1;HPM_P2
2022/06/16 11:37:46;;;;;;;1.60;1.50;;;19.90;99.90;;;;;;5091059;27;20548;-79
2022/06/16 11:40:36;;;;;;;1.65;1.55;;;19.90;99.90;;;;;;5090770;28;20199;-78
2022/06/16 11:43:35;;;;;;;1.85;1.75;;;19.90;99.90;;;;;;5089494;28;20171;-80
2022/06/16 11:46:22;;;;;;;1.90;1.80;;;20.00;99.90;;;;;;5089552;28;20167;-81
2022/06/16 11:49:03;;;;;;;1.85;1.70;;;20.10;99.90;;;;;;5090706;28;20174;-80
2022/06/16 11:51:49;;;;;;;1.75;1.65;;;20.20;99.90;;;;;;5090688;28;20163;-80
2022/06/16 11:54:59;;;;;;;3.25;1.65;;;20.30;99.90;;;;;;5090540;28;20163;-80
2022/06/16 12:00:56;;;;;;;1.85;1.50;;;20.60;99.90;;;;;;5091141;28;20209;-79
2022/06/16 12:03:33;;;;;;;2.85;1.83;;;20.80;99.90;;;;;;5090508;28;20163;-79
2022/06/16 12:06:15;;;;;;;6.68;2.15;;;21.00;99.90;;;;;;5090382;28;20178;-80
2022/06/16 12:08:54;;;;;;;2.13;1.88;;;21.10;99.90;;;;;;5090452;28;20148;-81
2022/06/16 12:11:28;;;;;;;2.13;1.52;;;21.20;99.90;;;;;;5089042;28;20262;-81
2022/06/16 12:14:22;;;;;;;2.83;1.95;;;21.40;99.90;;;;;;5090302;28;20240;-80
2022/06/16 12:17:19;;;;;;;1.88;1.73;;;21.60;99.90;;;;;;5090026;28;20241;-81
2022/06/16 12:19:51;;;;;;;3.50;1.60;;;21.70;99.90;;;;;;5090221;28;20202;-80
2022/06/16 12:22:40;;;;;;;2.10;2.00;;;21.80;99.90;;;;;;5090160;28;20171;-80
2022/06/16 12:25:22;;;;;;;1.80;1.70;;;21.70;99.90;;;;;;5090027;28;20174;-81
2022/06/16 12:27:53;;;;;;;2.67;1.88;;;21.80;99.90;;;;;;5090036;28;20219;-80
2022/06/16 12:30:33;;;;;;;1.80;1.70;;;21.90;99.90;;;;;;5089963;28;20579;-81
2022/06/16 12:33:30;;;;;;;1.70;1.60;;;21.90;99.90;;;;;;5089966;28;20167;-82
2022/06/16 12:36:11;;;;;;;2.55;1.88;;;22.00;99.90;;;;;;5089268;28;20328;-81
2022/06/16 12:38:48;;;;;;;1.67;1.65;;;22.00;99.90;;;;;;5088717;28;20187;-82
2022/06/16 12:41:23;;;;;;;2.15;2.00;;;22.10;99.90;;;;;;5089462;28;20175;-81
2022/06/16 12:43:56;;;;;;;1.80;1.70;;;22.10;99.90;;;;;;5087347;28;20648;-81
2022/06/16 12:46:50;;;;;;;2.20;1.65;;;22.00;99.90;;;;;;5088878;28;20269;-80
2022/06/16 12:49:23;;;;;;;2.75;1.60;;;22.10;99.90;;;;;;5074928;28;20184;-80
2022/06/16 12:51:56;;;;;;;2.30;2.03;;;22.20;99.90;;;;;;5076346;28;20175;-79
2022/06/16 12:54:28;;;;;;;2.35;2.13;;;22.10;99.90;;;;;;5076001;28;20176;-80
2022/06/16 12:57:18;;;;;;;4.72;1.75;;;22.20;99.90;;;;;;5075936;28;20311;-81
2022/06/16 12:59:50;;;;;;;2.03;1.70;;;22.30;99.90;;;;;;5075876;28;20644;-81
2022/06/16 13:02:21;;;;;;;1.85;1.75;;;22.60;99.90;;;;;;5075829;28;20221;-81
2022/06/16 13:04:49;;;;;;;2.30;2.20;;;22.80;99.90;;;;;;5075908;28;20587;-80
2022/06/16 13:07:19;;;;;;;6.28;2.63;;;22.80;99.90;;;;;;5075790;28;20175;-82
2022/06/16 13:09:45;;;;;;;4.38;1.42;;;23.00;99.90;;;;;;5075765;28;20168;-82
2022/06/16 13:12:22;;;;;;;1.92;1.83;;;23.30;99.90;;;;;;5074449;28;20175;-82
2022/06/16 13:15:06;;;;;;;1.88;1.50;;;23.60;99.90;;;;;;5075673;28;20209;-81
2022/06/16 13:17:36;;;;;;;3.47;2.10;;;23.90;99.90;;;;;;5075618;28;20164;-81
2022/06/16 13:20:07;;;;;;;1.70;1.60;;;24.10;99.90;;;;;;5075440;28;20168;-81
2022/06/16 13:22:57;;;;;;;6.05;1.98;;;24.30;99.90;;;;;;5074239;28;20187;-82
2022/06/16 13:25:52;;;;;;;2.80;1.90;;;24.60;99.90;;;;;;5074131;28;20203;-82
2022/06/16 13:28:31;;;;;;;2.05;1.95;;;24.70;99.90;;;;;;5075491;28;20172;-81
2022/06/16 13:31:13;;;;;;;1.83;1.40;;;24.80;99.90;;;;;;5074123;28;20712;-81
2022/06/16 13:33:54;;;;;;;1.55;1.40;;;25.00;99.90;;;;;;5075321;28;20167;-81
2022/06/16 13:36:22;;;;;;;1.98;1.88;;;24.90;99.90;;;;;;5075048;28;20298;-82
2022/06/16 13:38:49;;;;;;;3.50;1.60;;;24.60;99.90;;;;;;5075133;28;20267;-81
2022/06/16 13:42:12;;;;;;;1.70;1.55;;;24.30;99.90;;;;;;5075055;28;20172;-81
2022/06/16 13:45:10;;;;;;;2.45;1.45;;;24.60;99.90;;;;;;5072887;28;20176;-80
2022/06/16 13:47:36;;;;;;;2.63;1.80;;;24.90;99.90;;;;;;5072608;28;20578;-82
2022/06/16 13:50:08;;;;;;;7.78;2.10;;;24.80;99.90;;;;;;5074466;28;20176;-80
2022/06/16 13:52:37;;;;;;;4.28;1.73;;;24.80;99.90;;;;;;5074590;28;20168;-81
2022/06/16 13:55:34;;;;;;;2.70;1.70;;;24.90;99.90;;;;;;5074576;28;20160;-82
2022/06/16 13:58:12;;;;;;;1.55;1.45;;;25.00;99.90;;;;;;5074077;28;20196;-81
2022/06/16 14:00:39;;;;;;;2.13;1.65;;;25.20;99.90;;;;;;5074054;28;20168;-81
2022/06/16 14:03:16;;;;;;;1.80;1.70;;;25.40;99.90;;;;;;5074576;28;20184;-81
2022/06/16 14:05:51;;;;;;;4.50;1.77;;;25.20;99.90;;;;;;5074222;28;20517;-81
2022/06/16 14:08:17;;;;;;;1.48;1.40;;;25.40;99.90;;;;;;5073299;28;20171;-81
2022/06/16 14:10:52;;;;;;;2.03;1.92;;;25.60;99.90;;;;;;5074494;28;20259;-82
2022/06/16 14:13:25;;;;;;;4.53;1.83;;;25.40;99.90;;;;;;5073237;28;20190;-81
2022/06/16 14:16:19;;;;;;;2.00;1.90;;;25.40;99.90;;;;;;5073138;28;20204;-81
2022/06/16 14:19:00;;;;;;;2.10;2.00;;;25.60;99.90;;;;;;5074533;28;20284;-81
2022/06/16 14:21:32;;;;;;;4.03;3.75;;;25.90;99.90;;;;;;5073178;28;20167;-81
2022/06/16 14:24:19;;;;;;;1.98;1.88;;;25.80;99.90;;;;;;5074139;28;20167;-82
2022/06/16 14:26:45;;;;;;;2.25;1.63;;;25.70;99.90;;;;;;5073006;28;20197;-81
2022/06/16 14:29:18;;;;;;;2.13;2.03;;;25.70;99.90;;;;;;5074097;28;20572;-81
2022/06/16 14:31:53;;;;;;;1.83;1.50;;;26.00;99.90;;;;;;5074110;28;20172;-81
2022/06/16 14:34:28;;;;;;;2.60;2.40;;;26.30;99.90;;;;;;5072843;28;20652;-81
2022/06/16 14:37:18;;;;;;;3.00;2.28;;;26.30;99.90;;;;;;5073821;28;20223;-81
2022/06/16 14:39:53;;;;;;;4.15;1.70;;;26.10;99.90;;;;;;5072705;28;20164;-81
2022/06/16 14:42:32;;;;;;;1.98;1.88;;;26.10;99.90;;;;;;5072647;28;20168;-80
2022/06/16 14:45:10;;;;;;;3.05;1.85;;;26.40;99.90;;;;;;5073855;28;20160;-80
2022/06/16 14:47:41;;;;;;;1.83;1.60;;;26.50;99.90;;;;;;5073857;28;20242;-81
2022/06/16 14:50:09;;;;;;;8.20;7.60;;;26.40;99.90;;;;;;5072471;28;20669;-81
2022/06/16 14:52:42;;;;;;;2.88;2.10;;;26.20;99.90;;;;;;5073626;28;20168;-80
2022/06/16 14:55:11;;;;;;;3.83;1.75;;;26.00;99.90;;;;;;5073621;28;20171;-80
2022/06/16 14:57:45;;;;;;;1.58;1.55;;;25.80;99.90;;;;;;5073788;28;20183;-81
2022/06/16 15:00:30;;;;;;;2.05;1.60;;;26.10;99.90;;;;;;5073684;28;20251;-81
2022/06/16 15:03:06;;;;;;;3.28;2.05;;;26.20;99.90;;;;;;5073460;28;20652;-81
2022/06/16 15:05:35;;;;;;;3.63;1.70;;;26.30;99.90;;;;;;5073333;28;20233;-81
2022/06/16 15:08:01;;;;;;;2.05;1.90;;;26.60;99.90;;;;;;5073217;28;20172;-81
2022/06/16 15:10:30;;;;;;;1.80;1.70;;;26.80;99.90;;;;;;5072027;28;20605;-81
2022/06/16 15:13:03;;;;;;;2.03;1.88;;;26.80;99.90;;;;;;5073468;28;20167;-81
2022/06/16 15:15:30;;;;;;;3.63;1.85;;;26.90;99.90;;;;;;5073370;28;20183;-81
2022/06/16 15:18:30;;;;;;;1.85;1.42;;;27.10;99.90;;;;;;5073227;28;20163;-81
2022/06/16 15:20:54;;;;;;;3.90;1.50;;;27.10;99.90;;;;;;5073045;28;20176;-81
2022/06/16 15:23:23;;;;;;;1.63;1.52;;;27.20;99.90;;;;;;5072021;28;20221;-81
2022/06/16 15:25:55;;;;;;;1.63;1.52;;;27.10;99.90;;;;;;5073332;28;20175;-76
2022/06/16 15:28:39;;;;;;;1.98;1.88;;;27.20;99.90;;;;;;5073289;28;20167;-75
2022/06/16 15:31:17;;;;;;;2.15;1.90;;;27.40;99.90;;;;;;5073214;28;20191;-76
2022/06/16 15:36:56;;;;;;;3.05;1.70;;;28.00;99.90;;;;;;5073014;28;20226;-76
2022/06/16 15:39:35;;;;;;;2.53;2.00;;;28.30;99.90;;;;;;5071872;28;20180;-75
2022/06/16 15:42:05;;;;;;;2.17;1.50;;;28.00;99.90;;;;;;5073079;28;20171;-75
2022/06/16 15:44:40;;;;;;;1.55;1.45;;;27.80;99.90;;;;;;5073140;28;20160;-76
2022/06/16 15:47:12;;;;;;;4.15;1.80;;;27.80;99.90;;;;;;5072999;28;20169;-76
2022/06/16 15:49:42;;;;;;;2.35;1.80;;;27.90;99.90;;;;;;5073187;28;20163;-77
2022/06/16 15:52:22;;;;;;;4.53;1.88;;;28.00;99.90;;;;;;5071842;28;20168;-77
2022/06/16 15:54:55;;;;;;;4.00;2.05;;;28.00;99.90;;;;;;5071929;28;20241;-77
2022/06/16 15:57:21;;;;;;;1.75;1.65;;;27.90;99.90;;;;;;5071573;28;20204;-76
2022/06/16 15:59:55;;;;;;;2.55;1.90;;;27.90;99.90;;;;;;5072957;28;20177;-76
2022/06/16 16:02:24;;;;;;;1.70;1.60;;;27.70;99.90;;;;;;5071700;28;20194;-76
2022/06/16 16:05:06;;;;;;;2.83;1.83;;;27.80;99.90;;;;;;5071617;28;20172;-76
2022/06/16 16:07:35;;;;;;;2.88;1.80;;;28.10;99.90;;;;;;5071640;28;20179;-77
2022/06/16 16:10:07;;;;;;;5.05;2.35;;;28.30;99.90;;;;;;5071616;28;20171;-76
2022/06/16 16:12:33;;;;;;;1.70;1.60;;;28.20;99.90;;;;;;5073030;28;20176;-77
2022/06/16 16:15:05;;;;;;;1.50;1.42;;;27.90;99.90;;;;;;5072804;28;20224;-76
2022/06/16 16:17:42;;;;;;;2.45;1.75;;;28.00;99.90;;;;;;5072695;28;20206;-77
2022/06/16 16:20:29;;;;;;;1.77;1.67;;;27.90;99.90;;;;;;5072840;28;20213;-76
2022/06/16 16:23:01;;;;;;;1.92;1.73;;;28.20;99.90;;;;;;5072588;28;20179;-76
2022/06/16 16:25:33;;;;;;;2.05;1.67;;;28.40;99.90;;;;;;5076417;28;20160;-76
2022/06/16 16:27:59;;;;;;;3.42;1.67;;;28.70;99.90;;;;;;5076386;28;20156;-76
2022/06/16 16:30:25;;;;;;;2.05;1.27;;;28.50;99.90;;;;;;5076460;28;20647;-76
2022/06/16 16:32:51;;;;;;;1.75;1.65;;;28.00;99.90;;;;;;5076291;28;20224;-76
2022/06/16 16:35:20;;;;;;;1.65;1.55;;;28.20;99.90;;;;;;5075915;28;20250;-76
2022/06/16 16:37:47;;;;;;;3.20;1.50;;;28.50;99.90;;;;;;5076316;28;20243;-76
2022/06/16 16:40:18;;;;;;;1.55;1.48;;;28.80;99.90;;;;;;5076219;28;20168;-76
2022/06/16 16:43:04;;;;;;;3.10;1.90;;;28.70;99.90;;;;;;5076195;28;20243;-77
2022/06/16 16:45:40;;;;;;;1.83;1.67;;;28.50;99.90;;;;;;5076143;28;20640;-76
2022/06/16 16:48:20;;;;;;;1.73;1.63;;;28.50;99.90;;;;;;5076164;28;20524;-76
2022/06/16 16:50:55;;;;;;;1.63;1.27;;;28.40;99.90;;;;;;5076021;28;20159;-77
2022/06/16 16:53:29;;;;;;;1.70;1.52;;;28.70;99.90;;;;;;5074702;28;20175;-76
2022/06/16 16:56:06;;;;;;;2.83;1.40;;;28.80;99.90;;;;;;5075919;28;20199;-76
2022/06/16 16:58:38;;;;;;;1.50;1.40;;;28.30;99.80;;;;;;5075888;28;20175;-76
2022/06/16 17:01:04;;;;;;;4.70;1.80;;;28.30;99.90;;;;;;5074592;28;20168;-76
2022/06/16 17:03:30;;;;;;;1.65;1.55;;;28.20;99.90;;;;;;5075758;28;20164;-77
2022/06/16 17:05:55;;;;;;;3.63;1.73;;;28.20;99.90;;;;;;5074382;28;20210;-77
2022/06/16 17:08:21;;;;;;;1.92;1.83;;;28.10;99.90;;;;;;5075560;28;20191;-77
2022/06/16 17:11:50;;;;;;;1.42;1.33;;;27.90;99.90;;;;;;5075731;28;20179;-76
2022/06/16 17:13:34;;;;;;;2.90;1.55;;;27.80;99.90;;;;;;5075496;28;20191;-76
2022/06/16 17:16:00;;;;;;;3.33;1.50;;;27.40;99.90;;;;;;5075566;28;20180;-76
2022/06/16 17:18:26;;;;;;;2.05;1.80;;;27.10;99.90;;;;;;5074324;28;20199;-75
2022/06/16 17:20:51;;;;;;;2.10;1.48;;;26.80;99.90;;;;;;5075433;28;20249;-76
2022/06/16 17:23:17;;;;;;;3.33;1.88;;;26.70;99.90;;;;;;5075444;28;20168;-76
2022/06/16 17:25:43;;;;;;;3.63;1.85;;;26.40;99.90;;;;;;5075341;28;20345;-76
2022/06/16 17:28:08;;;;;;;2.15;1.38;;;26.30;99.90;;;;;;5075414;28;20237;-76
2022/06/16 17:30:36;;;;;;;1.80;1.40;;;26.10;99.90;;;;;;5075373;28;20186;-76
2022/06/16 17:33:02;;;;;;;1.73;1.63;;;25.90;99.90;;;;;;5075086;28;20160;-76
2022/06/16 17:35:38;;;;;;;1.70;1.60;;;25.80;99.90;;;;;;5075027;28;20285;-76
2022/06/16 17:38:04;;;;;;;2.15;1.95;;;25.50;99.90;;;;;;5075274;28;20182;-76
2022/06/16 17:40:30;;;;;;;2.03;1.92;;;25.20;99.90;;;;;;5075192;28;20666;-76
2022/06/16 17:42:56;;;;;;;1.67;1.58;;;25.00;99.90;;;;;;5075073;28;20254;-76
2022/06/16 17:45:24;;;;;;;2.90;1.90;;;24.80;99.90;;;;;;5073737;28;20172;-77
2022/06/16 17:47:50;;;;;;;2.47;1.70;;;24.60;99.90;;;;;;5074964;28;20168;-76
2022/06/16 17:50:17;;;;;;;2.58;1.65;;;24.50;99.90;;;;;;5073704;28;20679;-76
2022/06/16 18:01:03;;;;;;;2.05;1.63;;;23.80;99.90;;;;;;5074691;28;20214;-76
2022/06/16 18:03:30;;;;;;;1.73;1.63;;;23.60;99.90;;;;;;5073387;28;20164;-76
2022/06/16 18:05:56;;;;;;;5.78;1.60;;;23.40;99.90;;;;;;5074627;28;20237;-76
2022/06/16 18:08:31;;;;;;;2.88;1.83;;;23.30;99.90;;;;;;5074472;28;20187;-76
2022/06/16 18:10:58;;;;;;;5.53;1.98;;;23.20;99.90;;;;;;5074492;28;20167;-76
2022/06/16 18:13:25;;;;;;;2.80;2.38;;;23.00;99.90;;;;;;5074477;28;20660;-76
2022/06/16 18:15:52;;;;;;;1.70;1.60;;;22.90;99.90;;;;;;5074367;28;20179;-76
2022/06/16 18:18:18;;;;;;;2.38;1.90;;;22.80;99.90;;;;;;5074410;28;20651;-75
2022/06/16 18:20:47;;;;;;;1.60;1.50;;;22.70;99.90;;;;;;5074294;28;20191;-75
2022/06/16 18:23:14;;;;;;;2.28;2.10;;;22.60;99.90;;;;;;5074125;28;20171;-75
2022/06/16 18:25:40;;;;;;;1.75;1.65;;;22.50;99.90;;;;;;5074063;28;20191;-75
2022/06/16 18:28:11;;;;;;;1.98;1.85;;;22.50;99.90;;;;;;5073971;28;20160;-75
2022/06/16 18:30:37;;;;;;;3.55;1.60;;;22.40;99.90;;;;;;5073947;28;20519;-75
2022/06/16 18:33:03;;;;;;;3.78;2.22;;;22.40;99.90;;;;;;5073846;28;20201;-75
2022/06/16 18:35:31;;;;;;;3.75;1.58;;;22.50;99.90;;;;;;5072543;28;20211;-75
2022/06/16 18:37:59;;;;;;;4.45;2.08;;;22.40;99.90;;;;;;5072655;28;20199;-76
2022/06/16 18:40:28;;;;;;;2.13;1.92;;;22.50;99.90;;;;;;5073643;28;20522;-76
2022/06/16 18:42:59;;;;;;;3.00;2.00;;;22.60;99.90;;;;;;5072261;28;20199;-76
2022/06/16 18:45:25;;;;;;;1.73;1.63;;;22.60;99.90;;;;;;5072981;28;20182;-76
2022/06/16 18:47:50;;;;;;;2.13;1.52;;;23.10;99.90;;;;;;5072237;28;20167;-76
2022/06/16 18:50:18;;;;;;;3.67;1.90;;;23.70;99.90;;;;;;5073574;28;20168;-76
2022/06/16 18:52:44;;;;;;;2.85;1.83;;;24.40;99.90;;;;;;5073503;28;20171;-76
2022/06/16 18:55:11;;;;;;;2.58;1.85;;;24.90;99.90;;;;;;5073550;28;20564;-76
2022/06/16 18:57:38;;;;;;;4.43;1.80;;;25.20;99.90;;;;;;5073392;28;20172;-76
2022/06/16 19:00:09;;;;;;;1.65;1.48;;;25.50;99.90;;;;;;5073425;28;20572;-75
2022/06/16 19:02:39;;;;;;;1.70;1.60;;;25.60;99.90;;;;;;5073195;28;20175;-76
2022/06/16 19:05:08;;;;;;;2.15;1.42;;;25.70;99.90;;;;;;5071819;28;20202;-76
2022/06/16 19:07:35;;;;;;;1.60;1.50;;;25.60;99.90;;;;;;5072924;28;20191;-76
2022/06/16 19:10:01;;;;;;;1.60;1.50;;;25.20;99.90;;;;;;5073055;28;20186;-76
2022/06/16 19:12:30;;;;;;;1.55;1.45;;;24.80;99.90;;;;;;5073083;28;20160;-76
2022/06/16 19:14:58;;;;;;;3.38;1.80;;;24.40;99.90;;;;;;5073006;28;20247;-76
2022/06/16 19:17:27;;;;;;;1.80;1.67;;;23.90;99.90;;;;;;5072878;28;20168;-76
2022/06/16 19:20:17;;;;;;;2.00;1.90;;;23.60;99.90;;;;;;5072985;28;20174;-76
2022/06/16 19:22:45;;;;;;;1.80;1.60;;;23.10;99.90;;;;;;5072950;28;20536;-76
2022/06/16 19:25:18;;;;;;;1.70;1.60;;;22.60;99.90;;;;;;5073288;28;20445;-76
2022/06/16 19:27:44;;;;;;;7.88;2.83;;;22.10;99.90;;;;;;5072843;28;20206;-75
2022/06/16 19:30:29;;;;;;;8.20;1.98;;;21.90;99.90;;;;;;5071499;28;20163;-76
2022/06/16 19:32:56;;;;;;;2.00;1.90;;;21.50;99.90;;;;;;5072863;28;20191;-76
